sensor_id;sensor_type;location;lat;lon;timestamp;P1;durP1;ratioP1;P2;durP2;ratioP2
3939;SDS011;1984;48.312;9.244;2022-11-24T00:01:47;7.57;;;1.60;;
3939;SDS011;1984;48.312;9.244;2022-11-24T00:04:13;5.30;;;1.10;;
3939;SDS011;1984;48.312;9.244;2022-11-24T00:06:39;5.80;;;1.10;;
3939;SDS011;1984;48.312;9.244;2022-11-24T00:09:04;5.57;;;1.30;;
3939;SDS011;1984;48.312;9.244;2022-11-24T00:11:31;8.77;;;1.20;;
3939;SDS011;1984;48.312;9.244;2022-11-24T00:13:58;5.80;;;1.00;;
3939;SDS011;1984;48.312;9.244;2022-11-24T00:16:25;3.70;;;1.07;;
3939;SDS011;1984;48.312;9.244;2022-11-24T00:18:54;4.07;;;1.23;;
3939;SDS011;1984;48.312;9.244;2022-11-24T00:21:20;5.40;;;1.00;;
3939;SDS011;1984;48.312;9.244;2022-11-24T00:23:47;1.53;;;1.10;;
3939;SDS011;1984;48.312;9.244;2022-11-24T00:26:24;5.20;;;1.33;;
3939;SDS011;1984;48.312;9.244;2022-11-24T00:28:52;3.30;;;1.90;;
3939;SDS011;1984;48.312;9.244;2022-11-24T00:31:21;3.20;;;1.83;;
3939;SDS011;1984;48.312;9.244;2022-11-24T00:33:47;2.90;;;2.00;;
3939;SDS011;1984;48.312;9.244;2022-11-24T00:36:15;1.77;;;1.50;;
3939;SDS011;1984;48.312;9.244;2022-11-24T00:38:42;3.97;;;1.90;;
3939;SDS011;1984;48.312;9.244;2022-11-24T00:41:08;4.77;;;1.33;;
3939;SDS011;1984;48.312;9.244;2022-11-24T00:43:34;2.00;;;1.03;;
3939;SDS011;1984;48.312;9.244;2022-11-24T00:45:59;2.00;;;1.10;;
3939;SDS011;1984;48.312;9.244;2022-11-24T00:48:25;5.67;;;1.47;;
3939;SDS011;1984;48.312;9.244;2022-11-24T00:50:55;2.83;;;1.37;;
3939;SDS011;1984;48.312;9.244;2022-11-24T00:53:24;5.50;;;1.50;;
3939;SDS011;1984;48.312;9.244;2022-11-24T00:55:51;6.57;;;1.03;;
3939;SDS011;1984;48.312;9.244;2022-11-24T00:58:16;3.70;;;1.20;;
3939;SDS011;1984;48.312;9.244;2022-11-24T01:00:42;3.07;;;1.20;;
3939;SDS011;1984;48.312;9.244;2022-11-24T01:03:07;3.03;;;1.20;;
3939;SDS011;1984;48.312;9.244;2022-11-24T01:05:36;2.20;;;1.60;;
3939;SDS011;1984;48.312;9.244;2022-11-24T01:08:03;8.60;;;2.00;;
3939;SDS011;1984;48.312;9.244;2022-11-24T01:10:29;4.03;;;1.33;;
3939;SDS011;1984;48.312;9.244;2022-11-24T01:12:54;9.40;;;2.00;;
3939;SDS011;1984;48.312;9.244;2022-11-24T01:15:20;5.23;;;1.27;;
3939;SDS011;1984;48.312;9.244;2022-11-24T01:17:45;1.80;;;1.23;;
3939;SDS011;1984;48.312;9.244;2022-11-24T01:20:11;3.07;;;1.30;;
3939;SDS011;1984;48.312;9.244;2022-11-24T01:22:37;2.13;;;1.30;;
3939;SDS011;1984;48.312;9.244;2022-11-24T01:25:06;2.20;;;1.00;;
3939;SDS011;1984;48.312;9.244;2022-11-24T01:27:35;4.57;;;1.30;;
3939;SDS011;1984;48.312;9.244;2022-11-24T01:30:02;5.40;;;1.60;;
3939;SDS011;1984;48.312;9.244;2022-11-24T01:32:28;2.60;;;1.40;;
3939;SDS011;1984;48.312;9.244;2022-11-24T01:34:54;2.53;;;1.43;;
3939;SDS011;1984;48.312;9.244;2022-11-24T01:37:20;3.30;;;1.17;;
3939;SDS011;1984;48.312;9.244;2022-11-24T01:39:45;9.17;;;1.40;;
3939;SDS011;1984;48.312;9.244;2022-11-24T01:42:11;3.90;;;1.43;;
3939;SDS011;1984;48.312;9.244;2022-11-24T01:44:36;5.63;;;1.20;;
3939;SDS011;1984;48.312;9.244;2022-11-24T01:47:47;1.17;;;0.97;;
3939;SDS011;1984;48.312;9.244;2022-11-24T01:49:58;4.63;;;1.27;;
3939;SDS011;1984;48.312;9.244;2022-11-24T01:52:27;3.20;;;1.20;;
3939;SDS011;1984;48.312;9.244;2022-11-24T01:55:13;1.80;;;1.47;;
3939;SDS011;1984;48.312;9.244;2022-11-24T01:58:04;3.97;;;1.17;;
3939;SDS011;1984;48.312;9.244;2022-11-24T02:00:34;2.10;;;1.10;;
3939;SDS011;1984;48.312;9.244;2022-11-24T02:03:02;3.33;;;0.90;;
3939;SDS011;1984;48.312;9.244;2022-11-24T02:08:15;7.57;;;1.23;;
3939;SDS011;1984;48.312;9.244;2022-11-24T02:10:49;3.97;;;1.83;;
3939;SDS011;1984;48.312;9.244;2022-11-24T02:13:14;4.10;;;1.00;;
3939;SDS011;1984;48.312;9.244;2022-11-24T02:15:40;3.80;;;0.97;;
3939;SDS011;1984;48.312;9.244;2022-11-24T02:18:06;5.10;;;0.80;;
3939;SDS011;1984;48.312;9.244;2022-11-24T02:20:32;2.20;;;1.00;;
3939;SDS011;1984;48.312;9.244;2022-11-24T02:28:20;3.70;;;1.60;;
3939;SDS011;1984;48.312;9.244;2022-11-24T02:30:48;1.20;;;0.80;;
3939;SDS011;1984;48.312;9.244;2022-11-24T02:33:14;1.40;;;0.90;;
3939;SDS011;1984;48.312;9.244;2022-11-24T02:35:41;2.90;;;1.07;;
3939;SDS011;1984;48.312;9.244;2022-11-24T02:38:10;4.20;;;1.17;;
3939;SDS011;1984;48.312;9.244;2022-11-24T02:40:37;3.03;;;1.30;;
3939;SDS011;1984;48.312;9.244;2022-11-24T02:43:09;2.67;;;1.53;;
3939;SDS011;1984;48.312;9.244;2022-11-24T02:45:37;4.40;;;1.10;;
3939;SDS011;1984;48.312;9.244;2022-11-24T02:48:03;2.23;;;0.93;;
3939;SDS011;1984;48.312;9.244;2022-11-24T02:50:29;1.10;;;1.00;;
3939;SDS011;1984;48.312;9.244;2022-11-24T02:52:55;9.63;;;0.80;;
3939;SDS011;1984;48.312;9.244;2022-11-24T02:55:21;3.50;;;0.83;;
3939;SDS011;1984;48.312;9.244;2022-11-24T02:57:47;2.00;;;1.30;;
3939;SDS011;1984;48.312;9.244;2022-11-24T03:00:13;2.10;;;1.30;;
3939;SDS011;1984;48.312;9.244;2022-11-24T03:02:39;4.50;;;1.37;;
3939;SDS011;1984;48.312;9.244;2022-11-24T03:05:05;1.70;;;1.33;;
3939;SDS011;1984;48.312;9.244;2022-11-24T03:07:31;2.13;;;1.30;;
3939;SDS011;1984;48.312;9.244;2022-11-24T03:09:56;1.27;;;1.10;;
3939;SDS011;1984;48.312;9.244;2022-11-24T03:12:22;6.67;;;1.50;;
3939;SDS011;1984;48.312;9.244;2022-11-24T03:14:47;2.30;;;1.30;;
3939;SDS011;1984;48.312;9.244;2022-11-24T03:17:13;3.23;;;1.03;;
3939;SDS011;1984;48.312;9.244;2022-11-24T03:19:38;2.47;;;1.50;;
3939;SDS011;1984;48.312;9.244;2022-11-24T03:22:04;4.63;;;0.77;;
3939;SDS011;1984;48.312;9.244;2022-11-24T03:24:29;5.77;;;1.23;;
3939;SDS011;1984;48.312;9.244;2022-11-24T03:26:55;3.03;;;1.27;;
3939;SDS011;1984;48.312;9.244;2022-11-24T03:29:21;3.13;;;1.53;;
3939;SDS011;1984;48.312;9.244;2022-11-24T03:31:46;7.20;;;1.20;;
3939;SDS011;1984;48.312;9.244;2022-11-24T03:34:12;6.30;;;1.83;;
3939;SDS011;1984;48.312;9.244;2022-11-24T03:36:37;3.93;;;1.97;;
3939;SDS011;1984;48.312;9.244;2022-11-24T03:39:03;4.50;;;1.77;;
3939;SDS011;1984;48.312;9.244;2022-11-24T03:41:29;0.80;;;0.80;;
3939;SDS011;1984;48.312;9.244;2022-11-24T03:43:54;0.80;;;0.80;;
3939;SDS011;1984;48.312;9.244;2022-11-24T03:46:20;1.60;;;1.20;;
3939;SDS011;1984;48.312;9.244;2022-11-24T03:48:45;3.10;;;1.40;;
3939;SDS011;1984;48.312;9.244;2022-11-24T03:51:11;1.63;;;1.37;;
3939;SDS011;1984;48.312;9.244;2022-11-24T03:53:36;4.67;;;1.27;;
3939;SDS011;1984;48.312;9.244;2022-11-24T03:56:02;8.00;;;1.77;;
3939;SDS011;1984;48.312;9.244;2022-11-24T03:58:28;1.63;;;1.10;;
3939;SDS011;1984;48.312;9.244;2022-11-24T04:00:54;8.60;;;1.27;;
3939;SDS011;1984;48.312;9.244;2022-11-24T04:03:20;4.03;;;1.07;;
3939;SDS011;1984;48.312;9.244;2022-11-24T04:05:46;2.20;;;1.00;;
3939;SDS011;1984;48.312;9.244;2022-11-24T04:08:12;2.87;;;0.97;;
3939;SDS011;1984;48.312;9.244;2022-11-24T04:10:38;2.80;;;1.03;;
3939;SDS011;1984;48.312;9.244;2022-11-24T04:13:04;3.60;;;1.27;;
3939;SDS011;1984;48.312;9.244;2022-11-24T04:15:39;6.60;;;1.30;;
3939;SDS011;1984;48.312;9.244;2022-11-24T04:18:06;4.23;;;1.20;;
3939;SDS011;1984;48.312;9.244;2022-11-24T04:20:32;5.30;;;1.30;;
3939;SDS011;1984;48.312;9.244;2022-11-24T04:22:58;1.40;;;1.33;;
3939;SDS011;1984;48.312;9.244;2022-11-24T04:25:23;2.63;;;1.37;;
3939;SDS011;1984;48.312;9.244;2022-11-24T04:27:50;5.40;;;1.53;;
3939;SDS011;1984;48.312;9.244;2022-11-24T04:30:16;9.57;;;2.27;;
3939;SDS011;1984;48.312;9.244;2022-11-24T04:32:43;1.77;;;1.10;;
3939;SDS011;1984;48.312;9.244;2022-11-24T04:35:08;2.10;;;1.90;;
3939;SDS011;1984;48.312;9.244;2022-11-24T04:37:34;3.13;;;1.60;;
3939;SDS011;1984;48.312;9.244;2022-11-24T04:40:00;1.90;;;1.80;;
3939;SDS011;1984;48.312;9.244;2022-11-24T04:42:26;5.33;;;2.00;;
3939;SDS011;1984;48.312;9.244;2022-11-24T04:44:51;1.63;;;1.53;;
3939;SDS011;1984;48.312;9.244;2022-11-24T04:47:19;6.90;;;2.03;;
3939;SDS011;1984;48.312;9.244;2022-11-24T04:49:46;6.43;;;2.23;;
3939;SDS011;1984;48.312;9.244;2022-11-24T04:52:13;5.97;;;1.90;;
3939;SDS011;1984;48.312;9.244;2022-11-24T04:54:39;4.30;;;3.03;;
3939;SDS011;1984;48.312;9.244;2022-11-24T04:57:05;2.43;;;2.00;;
3939;SDS011;1984;48.312;9.244;2022-11-24T04:59:30;5.90;;;2.00;;
3939;SDS011;1984;48.312;9.244;2022-11-24T05:01:56;11.70;;;2.17;;
3939;SDS011;1984;48.312;9.244;2022-11-24T05:04:21;2.10;;;1.50;;
3939;SDS011;1984;48.312;9.244;2022-11-24T05:06:47;2.00;;;1.90;;
3939;SDS011;1984;48.312;9.244;2022-11-24T05:09:13;5.80;;;1.70;;
3939;SDS011;1984;48.312;9.244;2022-11-24T05:11:40;3.20;;;1.77;;
3939;SDS011;1984;48.312;9.244;2022-11-24T05:14:05;2.20;;;1.90;;
3939;SDS011;1984;48.312;9.244;2022-11-24T05:16:31;3.80;;;1.57;;
3939;SDS011;1984;48.312;9.244;2022-11-24T05:18:56;5.83;;;1.93;;
3939;SDS011;1984;48.312;9.244;2022-11-24T05:21:22;3.07;;;1.87;;
3939;SDS011;1984;48.312;9.244;2022-11-24T05:23:47;3.80;;;1.90;;
3939;SDS011;1984;48.312;9.244;2022-11-24T05:26:13;2.10;;;1.67;;
3939;SDS011;1984;48.312;9.244;2022-11-24T05:28:39;14.03;;;1.70;;
3939;SDS011;1984;48.312;9.244;2022-11-24T05:31:04;3.80;;;1.80;;
3939;SDS011;1984;48.312;9.244;2022-11-24T05:33:30;2.20;;;1.80;;
3939;SDS011;1984;48.312;9.244;2022-11-24T05:36:03;3.37;;;1.50;;
3939;SDS011;1984;48.312;9.244;2022-11-24T05:38:30;4.93;;;1.83;;
3939;SDS011;1984;48.312;9.244;2022-11-24T05:41:01;3.60;;;1.73;;
3939;SDS011;1984;48.312;9.244;2022-11-24T05:43:27;3.30;;;2.10;;
3939;SDS011;1984;48.312;9.244;2022-11-24T05:45:53;1.50;;;1.40;;
3939;SDS011;1984;48.312;9.244;2022-11-24T05:48:19;7.27;;;1.97;;
3939;SDS011;1984;48.312;9.244;2022-11-24T05:50:44;1.40;;;1.30;;
3939;SDS011;1984;48.312;9.244;2022-11-24T05:53:16;1.97;;;1.30;;
3939;SDS011;1984;48.312;9.244;2022-11-24T05:55:41;1.87;;;1.53;;
3939;SDS011;1984;48.312;9.244;2022-11-24T05:58:07;7.23;;;2.07;;
3939;SDS011;1984;48.312;9.244;2022-11-24T06:00:34;2.10;;;1.43;;
3939;SDS011;1984;48.312;9.244;2022-11-24T06:03:00;13.73;;;1.67;;
3939;SDS011;1984;48.312;9.244;2022-11-24T06:05:27;3.63;;;1.50;;
3939;SDS011;1984;48.312;9.244;2022-11-24T06:07:53;3.37;;;1.80;;
3939;SDS011;1984;48.312;9.244;2022-11-24T06:10:20;4.97;;;1.70;;
3939;SDS011;1984;48.312;9.244;2022-11-24T06:12:47;8.00;;;3.40;;
3939;SDS011;1984;48.312;9.244;2022-11-24T06:15:14;1.60;;;1.53;;
3939;SDS011;1984;48.312;9.244;2022-11-24T06:17:39;1.70;;;1.60;;
3939;SDS011;1984;48.312;9.244;2022-11-24T06:20:06;5.23;;;1.83;;
3939;SDS011;1984;48.312;9.244;2022-11-24T06:22:34;2.83;;;1.40;;
3939;SDS011;1984;48.312;9.244;2022-11-24T06:24:59;5.50;;;3.90;;
3939;SDS011;1984;48.312;9.244;2022-11-24T06:27:25;13.63;;;4.43;;
3939;SDS011;1984;48.312;9.244;2022-11-24T06:29:51;12.87;;;4.80;;
3939;SDS011;1984;48.312;9.244;2022-11-24T06:32:16;13.03;;;5.90;;
3939;SDS011;1984;48.312;9.244;2022-11-24T06:34:42;13.43;;;7.70;;
3939;SDS011;1984;48.312;9.244;2022-11-24T06:37:07;22.87;;;6.47;;
3939;SDS011;1984;48.312;9.244;2022-11-24T06:39:33;22.47;;;6.57;;
3939;SDS011;1984;48.312;9.244;2022-11-24T06:41:59;22.90;;;6.40;;
3939;SDS011;1984;48.312;9.244;2022-11-24T06:44:24;18.40;;;5.97;;
3939;SDS011;1984;48.312;9.244;2022-11-24T06:46:50;6.90;;;3.33;;
3939;SDS011;1984;48.312;9.244;2022-11-24T06:49:17;16.93;;;4.00;;
3939;SDS011;1984;48.312;9.244;2022-11-24T06:51:42;19.30;;;6.47;;
3939;SDS011;1984;48.312;9.244;2022-11-24T06:54:09;15.63;;;5.50;;
3939;SDS011;1984;48.312;9.244;2022-11-24T06:56:37;13.13;;;5.40;;
3939;SDS011;1984;48.312;9.244;2022-11-24T06:59:03;8.23;;;3.13;;
3939;SDS011;1984;48.312;9.244;2022-11-24T07:01:29;12.40;;;3.37;;
3939;SDS011;1984;48.312;9.244;2022-11-24T07:03:55;11.43;;;3.60;;
3939;SDS011;1984;48.312;9.244;2022-11-24T07:06:21;15.37;;;3.03;;
3939;SDS011;1984;48.312;9.244;2022-11-24T07:08:48;7.13;;;2.40;;
3939;SDS011;1984;48.312;9.244;2022-11-24T07:11:15;14.93;;;3.23;;
3939;SDS011;1984;48.312;9.244;2022-11-24T07:13:44;18.80;;;3.50;;
3939;SDS011;1984;48.312;9.244;2022-11-24T07:16:14;12.67;;;3.77;;
3939;SDS011;1984;48.312;9.244;2022-11-24T07:18:41;11.07;;;3.43;;
3939;SDS011;1984;48.312;9.244;2022-11-24T07:21:08;9.17;;;2.70;;
3939;SDS011;1984;48.312;9.244;2022-11-24T07:23:34;16.50;;;3.90;;
3939;SDS011;1984;48.312;9.244;2022-11-24T07:26:03;10.47;;;3.07;;
3939;SDS011;1984;48.312;9.244;2022-11-24T07:28:29;16.53;;;3.57;;
3939;SDS011;1984;48.312;9.244;2022-11-24T07:30:55;20.50;;;4.30;;
3939;SDS011;1984;48.312;9.244;2022-11-24T07:33:21;17.63;;;3.63;;
3939;SDS011;1984;48.312;9.244;2022-11-24T07:35:49;7.70;;;3.17;;
3939;SDS011;1984;48.312;9.244;2022-11-24T07:38:15;16.90;;;3.80;;
3939;SDS011;1984;48.312;9.244;2022-11-24T07:40:41;11.23;;;3.17;;
3939;SDS011;1984;48.312;9.244;2022-11-24T07:43:07;15.03;;;2.73;;
3939;SDS011;1984;48.312;9.244;2022-11-24T07:45:32;10.53;;;2.70;;
3939;SDS011;1984;48.312;9.244;2022-11-24T07:47:58;12.23;;;3.63;;
3939;SDS011;1984;48.312;9.244;2022-11-24T07:50:23;14.90;;;2.40;;
3939;SDS011;1984;48.312;9.244;2022-11-24T07:52:49;8.90;;;3.20;;
3939;SDS011;1984;48.312;9.244;2022-11-24T07:55:14;8.60;;;2.43;;
3939;SDS011;1984;48.312;9.244;2022-11-24T07:57:40;10.67;;;2.77;;
3939;SDS011;1984;48.312;9.244;2022-11-24T08:00:06;11.50;;;2.70;;
3939;SDS011;1984;48.312;9.244;2022-11-24T08:02:32;14.97;;;2.40;;
3939;SDS011;1984;48.312;9.244;2022-11-24T08:04:58;4.97;;;2.60;;
3939;SDS011;1984;48.312;9.244;2022-11-24T08:07:23;10.97;;;2.70;;
3939;SDS011;1984;48.312;9.244;2022-11-24T08:09:49;6.63;;;2.90;;
3939;SDS011;1984;48.312;9.244;2022-11-24T08:12:16;7.40;;;2.73;;
3939;SDS011;1984;48.312;9.244;2022-11-24T08:14:45;17.63;;;5.57;;
3939;SDS011;1984;48.312;9.244;2022-11-24T08:17:14;11.80;;;3.83;;
3939;SDS011;1984;48.312;9.244;2022-11-24T08:19:40;21.20;;;3.97;;
3939;SDS011;1984;48.312;9.244;2022-11-24T08:22:06;6.83;;;2.50;;
3939;SDS011;1984;48.312;9.244;2022-11-24T08:24:31;8.23;;;2.93;;
3939;SDS011;1984;48.312;9.244;2022-11-24T08:26:57;6.07;;;2.30;;
3939;SDS011;1984;48.312;9.244;2022-11-24T08:29:26;6.13;;;1.93;;
3939;SDS011;1984;48.312;9.244;2022-11-24T08:31:52;6.30;;;1.43;;
3939;SDS011;1984;48.312;9.244;2022-11-24T08:34:21;3.13;;;1.13;;
3939;SDS011;1984;48.312;9.244;2022-11-24T08:36:51;1.53;;;1.43;;
3939;SDS011;1984;48.312;9.244;2022-11-24T08:39:16;4.00;;;1.43;;
3939;SDS011;1984;48.312;9.244;2022-11-24T08:41:42;1.80;;;1.33;;
3939;SDS011;1984;48.312;9.244;2022-11-24T08:44:08;4.80;;;1.80;;
3939;SDS011;1984;48.312;9.244;2022-11-24T08:46:34;1.50;;;1.17;;
3939;SDS011;1984;48.312;9.244;2022-11-24T08:49:00;2.40;;;1.20;;
3939;SDS011;1984;48.312;9.244;2022-11-24T08:51:26;2.93;;;1.40;;
3939;SDS011;1984;48.312;9.244;2022-11-24T08:53:56;1.13;;;1.10;;
3939;SDS011;1984;48.312;9.244;2022-11-24T08:56:23;9.80;;;0.93;;
3939;SDS011;1984;48.312;9.244;2022-11-24T08:58:50;2.27;;;1.07;;
3939;SDS011;1984;48.312;9.244;2022-11-24T09:01:15;1.63;;;0.80;;
3939;SDS011;1984;48.312;9.244;2022-11-24T09:03:42;1.97;;;1.10;;
3939;SDS011;1984;48.312;9.244;2022-11-24T09:06:10;5.40;;;1.00;;
3939;SDS011;1984;48.312;9.244;2022-11-24T09:08:36;0.67;;;0.63;;
3939;SDS011;1984;48.312;9.244;2022-11-24T09:11:03;0.50;;;0.50;;
3939;SDS011;1984;48.312;9.244;2022-11-24T09:13:30;1.40;;;0.60;;
3939;SDS011;1984;48.312;9.244;2022-11-24T09:16:01;0.63;;;0.50;;
3939;SDS011;1984;48.312;9.244;2022-11-24T09:18:31;1.03;;;0.80;;
3939;SDS011;1984;48.312;9.244;2022-11-24T09:23:34;0.60;;;0.60;;
3939;SDS011;1984;48.312;9.244;2022-11-24T09:26:02;0.80;;;0.80;;
3939;SDS011;1984;48.312;9.244;2022-11-24T09:28:29;3.90;;;0.67;;
3939;SDS011;1984;48.312;9.244;2022-11-24T09:30:54;0.83;;;0.70;;
3939;SDS011;1984;48.312;9.244;2022-11-24T09:33:23;1.03;;;0.70;;
3939;SDS011;1984;48.312;9.244;2022-11-24T09:35:49;2.83;;;0.80;;
3939;SDS011;1984;48.312;9.244;2022-11-24T09:38:14;0.80;;;0.70;;
3939;SDS011;1984;48.312;9.244;2022-11-24T09:40:40;2.30;;;1.10;;
3939;SDS011;1984;48.312;9.244;2022-11-24T09:43:14;0.90;;;0.90;;
3939;SDS011;1984;48.312;9.244;2022-11-24T09:46:22;5.30;;;1.10;;
3939;SDS011;1984;48.312;9.244;2022-11-24T09:48:59;1.83;;;1.37;;
3939;SDS011;1984;48.312;9.244;2022-11-24T09:51:27;2.20;;;1.90;;
3939;SDS011;1984;48.312;9.244;2022-11-24T09:53:56;2.33;;;1.70;;
3939;SDS011;1984;48.312;9.244;2022-11-24T09:56:27;1.90;;;1.37;;
3939;SDS011;1984;48.312;9.244;2022-11-24T09:59:29;4.13;;;1.47;;
3939;SDS011;1984;48.312;9.244;2022-11-24T10:01:48;2.60;;;1.00;;
3939;SDS011;1984;48.312;9.244;2022-11-24T10:04:34;1.27;;;0.90;;
3939;SDS011;1984;48.312;9.244;2022-11-24T10:23:24;1.53;;;0.80;;
3939;SDS011;1984;48.312;9.244;2022-11-24T10:25:57;0.80;;;0.80;;
3939;SDS011;1984;48.312;9.244;2022-11-24T10:28:40;3.70;;;0.80;;
3939;SDS011;1984;48.312;9.244;2022-11-24T10:31:31;1.00;;;0.60;;
3939;SDS011;1984;48.312;9.244;2022-11-24T10:34:09;1.43;;;0.60;;
3939;SDS011;1984;48.312;9.244;2022-11-24T10:36:47;1.10;;;1.00;;
3939;SDS011;1984;48.312;9.244;2022-11-24T10:39:49;0.77;;;0.77;;
3939;SDS011;1984;48.312;9.244;2022-11-24T10:42:28;1.97;;;1.40;;
3939;SDS011;1984;48.312;9.244;2022-11-24T10:45:08;2.63;;;1.10;;
3939;SDS011;1984;48.312;9.244;2022-11-24T10:47:36;1.97;;;1.27;;
3939;SDS011;1984;48.312;9.244;2022-11-24T10:58:21;1.70;;;0.77;;
3939;SDS011;1984;48.312;9.244;2022-11-24T11:00:48;0.70;;;0.70;;
3939;SDS011;1984;48.312;9.244;2022-11-24T11:03:15;3.90;;;0.97;;
3939;SDS011;1984;48.312;9.244;2022-11-24T11:05:55;1.87;;;1.13;;
3939;SDS011;1984;48.312;9.244;2022-11-24T11:08:33;2.00;;;0.83;;
3939;SDS011;1984;48.312;9.244;2022-11-24T11:13:59;2.43;;;1.00;;
3939;SDS011;1984;48.312;9.244;2022-11-24T11:22:11;5.03;;;0.97;;
3939;SDS011;1984;48.312;9.244;2022-11-24T11:24:43;4.33;;;1.40;;
3939;SDS011;1984;48.312;9.244;2022-11-24T11:29:47;6.73;;;1.30;;
3939;SDS011;1984;48.312;9.244;2022-11-24T11:32:21;2.67;;;1.10;;
3939;SDS011;1984;48.312;9.244;2022-11-24T11:34:49;3.17;;;1.00;;
3939;SDS011;1984;48.312;9.244;2022-11-24T11:37:16;2.23;;;0.90;;
3939;SDS011;1984;48.312;9.244;2022-11-24T11:39:50;8.57;;;1.00;;
3939;SDS011;1984;48.312;9.244;2022-11-24T11:42:34;4.03;;;1.73;;
3939;SDS011;1984;48.312;9.244;2022-11-24T11:45:10;2.13;;;1.20;;
3939;SDS011;1984;48.312;9.244;2022-11-24T11:47:52;1.10;;;1.00;;
3939;SDS011;1984;48.312;9.244;2022-11-24T11:56:00;3.33;;;1.17;;
3939;SDS011;1984;48.312;9.244;2022-11-24T12:06:58;4.33;;;1.10;;
3939;SDS011;1984;48.312;9.244;2022-11-24T12:17:44;2.77;;;1.50;;
3939;SDS011;1984;48.312;9.244;2022-11-24T12:25:46;5.13;;;1.63;;
3939;SDS011;1984;48.312;9.244;2022-11-24T12:28:31;7.20;;;1.20;;
3939;SDS011;1984;48.312;9.244;2022-11-24T12:31:33;3.57;;;0.97;;
3939;SDS011;1984;48.312;9.244;2022-11-24T12:48:52;5.70;;;1.17;;
3939;SDS011;1984;48.312;9.244;2022-11-24T12:51:28;6.20;;;1.87;;
3939;SDS011;1984;48.312;9.244;2022-11-24T12:53:57;5.13;;;1.20;;
3939;SDS011;1984;48.312;9.244;2022-11-24T12:56:29;5.83;;;1.10;;
3939;SDS011;1984;48.312;9.244;2022-11-24T12:59:08;3.67;;;1.10;;
3939;SDS011;1984;48.312;9.244;2022-11-24T13:04:36;1.87;;;0.80;;
3939;SDS011;1984;48.312;9.244;2022-11-24T13:07:12;4.73;;;1.07;;
3939;SDS011;1984;48.312;9.244;2022-11-24T13:12:56;0.80;;;0.80;;
3939;SDS011;1984;48.312;9.244;2022-11-24T13:15:26;4.13;;;0.90;;
3939;SDS011;1984;48.312;9.244;2022-11-24T13:17:53;4.50;;;1.10;;
3939;SDS011;1984;48.312;9.244;2022-11-24T13:22:45;3.13;;;1.60;;
3939;SDS011;1984;48.312;9.244;2022-11-24T13:25:27;6.87;;;1.57;;
3939;SDS011;1984;48.312;9.244;2022-11-24T13:27:55;3.03;;;1.17;;
3939;SDS011;1984;48.312;9.244;2022-11-24T13:32:59;5.33;;;1.40;;
3939;SDS011;1984;48.312;9.244;2022-11-24T13:35:26;2.03;;;1.60;;
3939;SDS011;1984;48.312;9.244;2022-11-24T13:37:52;4.87;;;1.73;;
3939;SDS011;1984;48.312;9.244;2022-11-24T13:40:35;4.27;;;1.40;;
3939;SDS011;1984;48.312;9.244;2022-11-24T13:58:23;2.63;;;1.37;;
3939;SDS011;1984;48.312;9.244;2022-11-24T14:01:10;14.87;;;2.17;;
3939;SDS011;1984;48.312;9.244;2022-11-24T14:03:57;4.37;;;1.40;;
3939;SDS011;1984;48.312;9.244;2022-11-24T14:06:43;4.77;;;1.77;;
3939;SDS011;1984;48.312;9.244;2022-11-24T14:09:19;4.30;;;1.37;;
3939;SDS011;1984;48.312;9.244;2022-11-24T14:11:46;2.63;;;1.07;;
3939;SDS011;1984;48.312;9.244;2022-11-24T14:14:39;7.57;;;2.23;;
3939;SDS011;1984;48.312;9.244;2022-11-24T14:19:40;2.03;;;1.20;;
3939;SDS011;1984;48.312;9.244;2022-11-24T14:22:13;3.10;;;2.20;;
3939;SDS011;1984;48.312;9.244;2022-11-24T14:24:41;7.70;;;1.63;;
3939;SDS011;1984;48.312;9.244;2022-11-24T14:27:12;9.20;;;1.70;;
3939;SDS011;1984;48.312;9.244;2022-11-24T14:29:50;7.07;;;1.40;;
3939;SDS011;1984;48.312;9.244;2022-11-24T14:32:20;14.00;;;1.80;;
3939;SDS011;1984;48.312;9.244;2022-11-24T14:34:46;6.67;;;1.80;;
3939;SDS011;1984;48.312;9.244;2022-11-24T14:37:12;6.40;;;2.40;;
3939;SDS011;1984;48.312;9.244;2022-11-24T14:39:40;9.67;;;2.60;;
3939;SDS011;1984;48.312;9.244;2022-11-24T14:42:14;5.73;;;1.97;;
3939;SDS011;1984;48.312;9.244;2022-11-24T14:47:16;4.00;;;1.17;;
3939;SDS011;1984;48.312;9.244;2022-11-24T14:49:45;3.47;;;1.50;;
3939;SDS011;1984;48.312;9.244;2022-11-24T14:52:12;9.43;;;1.23;;
3939;SDS011;1984;48.312;9.244;2022-11-24T14:54:45;2.03;;;1.20;;
3939;SDS011;1984;48.312;9.244;2022-11-24T14:57:23;6.53;;;2.47;;
3939;SDS011;1984;48.312;9.244;2022-11-24T15:02:38;5.50;;;1.70;;
3939;SDS011;1984;48.312;9.244;2022-11-24T15:05:06;1.73;;;1.50;;
3939;SDS011;1984;48.312;9.244;2022-11-24T15:07:31;4.10;;;2.30;;
3939;SDS011;1984;48.312;9.244;2022-11-24T15:10:00;2.80;;;1.73;;
3939;SDS011;1984;48.312;9.244;2022-11-24T15:17:44;5.70;;;2.23;;
3939;SDS011;1984;48.312;9.244;2022-11-24T15:22:48;7.77;;;3.50;;
3939;SDS011;1984;48.312;9.244;2022-11-24T15:25:32;5.67;;;2.30;;
3939;SDS011;1984;48.312;9.244;2022-11-24T15:27:58;7.20;;;2.70;;
3939;SDS011;1984;48.312;9.244;2022-11-24T15:30:24;5.27;;;2.70;;
3939;SDS011;1984;48.312;9.244;2022-11-24T15:32:54;7.80;;;3.57;;
3939;SDS011;1984;48.312;9.244;2022-11-24T15:35:22;8.87;;;3.53;;
3939;SDS011;1984;48.312;9.244;2022-11-24T15:37:49;8.50;;;3.90;;
3939;SDS011;1984;48.312;9.244;2022-11-24T15:40:15;10.50;;;3.50;;
3939;SDS011;1984;48.312;9.244;2022-11-24T15:42:42;5.37;;;3.20;;
3939;SDS011;1984;48.312;9.244;2022-11-24T15:45:15;7.83;;;3.50;;
3939;SDS011;1984;48.312;9.244;2022-11-24T15:47:40;11.00;;;3.30;;
3939;SDS011;1984;48.312;9.244;2022-11-24T15:50:06;4.97;;;2.93;;
3939;SDS011;1984;48.312;9.244;2022-11-24T15:52:32;6.50;;;2.57;;
3939;SDS011;1984;48.312;9.244;2022-11-24T15:54:58;3.60;;;2.20;;
3939;SDS011;1984;48.312;9.244;2022-11-24T15:57:24;9.47;;;5.50;;
3939;SDS011;1984;48.312;9.244;2022-11-24T15:59:50;11.43;;;3.83;;
3939;SDS011;1984;48.312;9.244;2022-11-24T16:02:16;4.40;;;2.47;;
3939;SDS011;1984;48.312;9.244;2022-11-24T16:04:43;6.60;;;2.20;;
3939;SDS011;1984;48.312;9.244;2022-11-24T16:07:11;3.27;;;2.20;;
3939;SDS011;1984;48.312;9.244;2022-11-24T16:09:37;3.40;;;1.70;;
3939;SDS011;1984;48.312;9.244;2022-11-24T16:12:03;6.07;;;1.87;;
3939;SDS011;1984;48.312;9.244;2022-11-24T16:14:30;2.50;;;1.90;;
3939;SDS011;1984;48.312;9.244;2022-11-24T16:16:56;4.83;;;2.57;;
3939;SDS011;1984;48.312;9.244;2022-11-24T16:19:21;2.17;;;1.90;;
3939;SDS011;1984;48.312;9.244;2022-11-24T16:21:47;4.40;;;2.30;;
3939;SDS011;1984;48.312;9.244;2022-11-24T16:24:12;4.53;;;2.67;;
3939;SDS011;1984;48.312;9.244;2022-11-24T16:26:38;4.03;;;2.43;;
3939;SDS011;1984;48.312;9.244;2022-11-24T16:29:03;11.00;;;3.40;;
3939;SDS011;1984;48.312;9.244;2022-11-24T16:31:29;12.63;;;3.43;;
3939;SDS011;1984;48.312;9.244;2022-11-24T16:33:55;9.50;;;5.10;;
3939;SDS011;1984;48.312;9.244;2022-11-24T16:36:21;4.57;;;3.60;;
3939;SDS011;1984;48.312;9.244;2022-11-24T16:38:46;9.97;;;3.20;;
3939;SDS011;1984;48.312;9.244;2022-11-24T16:41:12;5.33;;;2.83;;
3939;SDS011;1984;48.312;9.244;2022-11-24T16:43:37;11.03;;;5.20;;
3939;SDS011;1984;48.312;9.244;2022-11-24T16:48:41;10.33;;;4.40;;
3939;SDS011;1984;48.312;9.244;2022-11-24T16:51:08;8.63;;;3.80;;
3939;SDS011;1984;48.312;9.244;2022-11-24T16:53:34;17.03;;;6.30;;
3939;SDS011;1984;48.312;9.244;2022-11-24T16:56:00;3.17;;;2.87;;
3939;SDS011;1984;48.312;9.244;2022-11-24T16:58:26;7.20;;;2.90;;
3939;SDS011;1984;48.312;9.244;2022-11-24T17:00:52;8.03;;;4.47;;
3939;SDS011;1984;48.312;9.244;2022-11-24T17:03:18;11.70;;;5.50;;
3939;SDS011;1984;48.312;9.244;2022-11-24T17:05:55;17.30;;;6.60;;
3939;SDS011;1984;48.312;9.244;2022-11-24T17:08:24;44.90;;;7.40;;
3939;SDS011;1984;48.312;9.244;2022-11-24T17:10:49;29.57;;;8.33;;
3939;SDS011;1984;48.312;9.244;2022-11-24T17:13:15;20.90;;;8.80;;
3939;SDS011;1984;48.312;9.244;2022-11-24T17:15:41;19.53;;;8.70;;
3939;SDS011;1984;48.312;9.244;2022-11-24T17:18:07;13.03;;;4.90;;
3939;SDS011;1984;48.312;9.244;2022-11-24T17:20:32;14.13;;;7.07;;
3939;SDS011;1984;48.312;9.244;2022-11-24T17:23:00;17.30;;;6.20;;
3939;SDS011;1984;48.312;9.244;2022-11-24T17:25:26;14.27;;;7.60;;
3939;SDS011;1984;48.312;9.244;2022-11-24T17:27:52;15.53;;;7.33;;
3939;SDS011;1984;48.312;9.244;2022-11-24T17:30:18;20.33;;;11.23;;
3939;SDS011;1984;48.312;9.244;2022-11-24T17:32:43;32.57;;;11.80;;
3939;SDS011;1984;48.312;9.244;2022-11-24T17:35:09;40.70;;;12.90;;